sensor_id;sensor_type;location;lat;lon;timestamp;temperature;humidity
13892;DHT22;7016;48.172;8.058;2023-02-28T00:00:28;0.90;96.60
13892;DHT22;7016;48.172;8.058;2023-02-28T00:02:54;1.00;96.90
13892;DHT22;7016;48.172;8.058;2023-02-28T00:05:22;1.00;96.70
13892;DHT22;7016;48.172;8.058;2023-02-28T00:07:48;1.10;96.50
13892;DHT22;7016;48.172;8.058;2023-02-28T00:10:16;1.00;96.60
13892;DHT22;7016;48.172;8.058;2023-02-28T00:12:53;0.90;96.90
13892;DHT22;7016;48.172;8.058;2023-02-28T00:15:20;0.90;97.30
13892;DHT22;7016;48.172;8.058;2023-02-28T00:17:46;1.00;97.20
13892;DHT22;7016;48.172;8.058;2023-02-28T00:20:13;1.00;97.00
13892;DHT22;7016;48.172;8.058;2023-02-28T00:22:41;1.20;97.30
13892;DHT22;7016;48.172;8.058;2023-02-28T00:25:08;1.10;96.90
13892;DHT22;7016;48.172;8.058;2023-02-28T00:27:35;1.10;97.10
13892;DHT22;7016;48.172;8.058;2023-02-28T00:30:01;1.10;97.10
13892;DHT22;7016;48.172;8.058;2023-02-28T00:32:27;1.10;97.00
13892;DHT22;7016;48.172;8.058;2023-02-28T00:34:52;0.80;97.40
13892;DHT22;7016;48.172;8.058;2023-02-28T00:37:18;0.70;97.80
13892;DHT22;7016;48.172;8.058;2023-02-28T00:39:44;0.80;97.90
13892;DHT22;7016;48.172;8.058;2023-02-28T00:42:09;0.70;97.90
13892;DHT22;7016;48.172;8.058;2023-02-28T00:44:35;0.90;98.10
13892;DHT22;7016;48.172;8.058;2023-02-28T00:47:01;1.00;97.90
13892;DHT22;7016;48.172;8.058;2023-02-28T00:49:27;0.90;97.80
13892;DHT22;7016;48.172;8.058;2023-02-28T00:51:54;1.00;98.00
13892;DHT22;7016;48.172;8.058;2023-02-28T00:54:21;1.00;97.90
13892;DHT22;7016;48.172;8.058;2023-02-28T00:56:47;0.80;97.90
13892;DHT22;7016;48.172;8.058;2023-02-28T00:59:14;0.80;98.30
13892;DHT22;7016;48.172;8.058;2023-02-28T01:01:40;0.90;98.30
13892;DHT22;7016;48.172;8.058;2023-02-28T01:04:06;1.00;98.20
13892;DHT22;7016;48.172;8.058;2023-02-28T01:06:32;1.00;98.30
13892;DHT22;7016;48.172;8.058;2023-02-28T01:08:58;1.10;98.10
13892;DHT22;7016;48.172;8.058;2023-02-28T01:11:24;0.80;98.50
13892;DHT22;7016;48.172;8.058;2023-02-28T01:13:50;0.70;98.70
13892;DHT22;7016;48.172;8.058;2023-02-28T01:16:16;0.90;98.90
13892;DHT22;7016;48.172;8.058;2023-02-28T01:18:42;0.80;98.80
13892;DHT22;7016;48.172;8.058;2023-02-28T01:21:11;0.80;98.70
13892;DHT22;7016;48.172;8.058;2023-02-28T01:23:38;0.80;98.70
13892;DHT22;7016;48.172;8.058;2023-02-28T01:26:12;0.70;98.90
13892;DHT22;7016;48.172;8.058;2023-02-28T01:28:39;0.90;99.00
13892;DHT22;7016;48.172;8.058;2023-02-28T01:31:04;0.90;98.90
13892;DHT22;7016;48.172;8.058;2023-02-28T01:33:31;0.90;99.00
13892;DHT22;7016;48.172;8.058;2023-02-28T01:36:04;0.90;98.90
13892;DHT22;7016;48.172;8.058;2023-02-28T01:38:31;1.00;98.90
13892;DHT22;7016;48.172;8.058;2023-02-28T01:40:57;0.90;99.10
13892;DHT22;7016;48.172;8.058;2023-02-28T01:43:25;0.90;99.20
13892;DHT22;7016;48.172;8.058;2023-02-28T01:45:53;0.80;99.20
13892;DHT22;7016;48.172;8.058;2023-02-28T01:48:31;0.90;99.30
13892;DHT22;7016;48.172;8.058;2023-02-28T01:51:03;1.10;99.30
13892;DHT22;7016;48.172;8.058;2023-02-28T01:53:36;0.90;99.10
13892;DHT22;7016;48.172;8.058;2023-02-28T01:56:05;0.80;99.30
13892;DHT22;7016;48.172;8.058;2023-02-28T01:58:32;0.80;99.40
13892;DHT22;7016;48.172;8.058;2023-02-28T02:00:58;0.90;99.50
13892;DHT22;7016;48.172;8.058;2023-02-28T02:03:24;0.80;99.50
13892;DHT22;7016;48.172;8.058;2023-02-28T02:05:50;1.00;99.50
13892;DHT22;7016;48.172;8.058;2023-02-28T02:08:23;0.80;99.50
13892;DHT22;7016;48.172;8.058;2023-02-28T02:11:00;0.90;99.50
13892;DHT22;7016;48.172;8.058;2023-02-28T02:14:28;1.10;99.40
13892;DHT22;7016;48.172;8.058;2023-02-28T02:30:20;1.10;99.30
13892;DHT22;7016;48.172;8.058;2023-02-28T02:33:17;0.90;99.40
13892;DHT22;7016;48.172;8.058;2023-02-28T02:38:21;0.70;99.90
13892;DHT22;7016;48.172;8.058;2023-02-28T02:41:03;0.70;99.90
13892;DHT22;7016;48.172;8.058;2023-02-28T02:43:39;0.80;99.90
13892;DHT22;7016;48.172;8.058;2023-02-28T02:46:17;0.60;99.90
13892;DHT22;7016;48.172;8.058;2023-02-28T02:48:45;0.60;99.90
13892;DHT22;7016;48.172;8.058;2023-02-28T02:51:15;0.70;99.90
13892;DHT22;7016;48.172;8.058;2023-02-28T02:53:47;0.70;99.90
13892;DHT22;7016;48.172;8.058;2023-02-28T02:56:19;0.80;99.90
13892;DHT22;7016;48.172;8.058;2023-02-28T02:58:48;0.70;99.90
13892;DHT22;7016;48.172;8.058;2023-02-28T03:01:19;0.70;99.90
13892;DHT22;7016;48.172;8.058;2023-02-28T03:03:58;0.80;99.90
13892;DHT22;7016;48.172;8.058;2023-02-28T03:06:25;0.80;99.90
13892;DHT22;7016;48.172;8.058;2023-02-28T03:08:51;0.60;99.90
13892;DHT22;7016;48.172;8.058;2023-02-28T03:11:16;0.60;99.90
13892;DHT22;7016;48.172;8.058;2023-02-28T03:13:47;0.60;99.90
13892;DHT22;7016;48.172;8.058;2023-02-28T03:22:22;0.90;99.90
13892;DHT22;7016;48.172;8.058;2023-02-28T03:27:29;0.50;99.90
13892;DHT22;7016;48.172;8.058;2023-02-28T03:30:10;0.70;99.90
13892;DHT22;7016;48.172;8.058;2023-02-28T03:32:56;0.70;99.90
13892;DHT22;7016;48.172;8.058;2023-02-28T03:35:37;0.60;99.90
13892;DHT22;7016;48.172;8.058;2023-02-28T03:38:18;0.50;99.90
13892;DHT22;7016;48.172;8.058;2023-02-28T03:40:50;0.60;99.90
13892;DHT22;7016;48.172;8.058;2023-02-28T03:43:21;0.60;99.90
13892;DHT22;7016;48.172;8.058;2023-02-28T03:45:50;0.70;99.90
13892;DHT22;7016;48.172;8.058;2023-02-28T03:48:40;0.80;99.90
13892;DHT22;7016;48.172;8.058;2023-02-28T03:51:10;0.90;99.90
13892;DHT22;7016;48.172;8.058;2023-02-28T03:53:45;0.80;99.90
13892;DHT22;7016;48.172;8.058;2023-02-28T03:56:20;0.60;99.90
13892;DHT22;7016;48.172;8.058;2023-02-28T03:59:54;0.50;99.90
13892;DHT22;7016;48.172;8.058;2023-02-28T04:01:48;0.40;99.90
13892;DHT22;7016;48.172;8.058;2023-02-28T04:04:15;0.60;99.90
13892;DHT22;7016;48.172;8.058;2023-02-28T04:06:41;0.40;99.90
13892;DHT22;7016;48.172;8.058;2023-02-28T04:09:10;0.30;99.90
13892;DHT22;7016;48.172;8.058;2023-02-28T04:11:50;0.30;99.90
13892;DHT22;7016;48.172;8.058;2023-02-28T04:14:21;0.50;99.90
13892;DHT22;7016;48.172;8.058;2023-02-28T04:16:47;0.60;99.90
13892;DHT22;7016;48.172;8.058;2023-02-28T04:19:14;0.60;99.90
13892;DHT22;7016;48.172;8.058;2023-02-28T04:21:46;0.50;99.90
13892;DHT22;7016;48.172;8.058;2023-02-28T04:24:14;0.40;99.90
13892;DHT22;7016;48.172;8.058;2023-02-28T04:26:42;0.30;99.90
13892;DHT22;7016;48.172;8.058;2023-02-28T04:29:09;0.40;99.90
13892;DHT22;7016;48.172;8.058;2023-02-28T04:31:35;0.40;99.90
13892;DHT22;7016;48.172;8.058;2023-02-28T04:34:01;0.30;99.90
13892;DHT22;7016;48.172;8.058;2023-02-28T04:36:27;0.20;99.90
13892;DHT22;7016;48.172;8.058;2023-02-28T04:38:53;0.20;99.90
13892;DHT22;7016;48.172;8.058;2023-02-28T04:41:19;0.30;99.90
13892;DHT22;7016;48.172;8.058;2023-02-28T04:43:45;0.40;99.90
13892;DHT22;7016;48.172;8.058;2023-02-28T04:46:11;0.10;99.90
13892;DHT22;7016;48.172;8.058;2023-02-28T04:48:39;0.10;99.90
13892;DHT22;7016;48.172;8.058;2023-02-28T04:51:08;0.20;99.90
13892;DHT22;7016;48.172;8.058;2023-02-28T04:53:34;0.20;99.90
13892;DHT22;7016;48.172;8.058;2023-02-28T04:56:01;0.20;99.90
13892;DHT22;7016;48.172;8.058;2023-02-28T04:58:27;0.30;99.90
13892;DHT22;7016;48.172;8.058;2023-02-28T05:00:54;0.40;99.90
13892;DHT22;7016;48.172;8.058;2023-02-28T05:03:20;0.30;99.90
13892;DHT22;7016;48.172;8.058;2023-02-28T05:05:47;0.30;99.90
13892;DHT22;7016;48.172;8.058;2023-02-28T05:08:13;0.30;99.90
13892;DHT22;7016;48.172;8.058;2023-02-28T05:10:39;0.10;99.90
13892;DHT22;7016;48.172;8.058;2023-02-28T05:13:05;0.10;99.90
13892;DHT22;7016;48.172;8.058;2023-02-28T05:15:31;0.10;99.90
13892;DHT22;7016;48.172;8.058;2023-02-28T05:17:56;0.10;99.90
13892;DHT22;7016;48.172;8.058;2023-02-28T05:20:22;0.00;99.90
13892;DHT22;7016;48.172;8.058;2023-02-28T05:22:49;-0.20;99.90
13892;DHT22;7016;48.172;8.058;2023-02-28T05:25:20;-0.10;99.90
13892;DHT22;7016;48.172;8.058;2023-02-28T05:27:48;0.00;99.90
13892;DHT22;7016;48.172;8.058;2023-02-28T05:30:14;0.00;99.90
13892;DHT22;7016;48.172;8.058;2023-02-28T05:32:41;0.00;99.90
13892;DHT22;7016;48.172;8.058;2023-02-28T05:35:10;0.00;99.90
13892;DHT22;7016;48.172;8.058;2023-02-28T05:37:37;0.20;99.90
13892;DHT22;7016;48.172;8.058;2023-02-28T05:40:03;0.30;99.90
13892;DHT22;7016;48.172;8.058;2023-02-28T05:42:36;0.30;99.90
13892;DHT22;7016;48.172;8.058;2023-02-28T05:45:01;0.30;99.90
13892;DHT22;7016;48.172;8.058;2023-02-28T05:47:27;0.50;99.90
13892;DHT22;7016;48.172;8.058;2023-02-28T05:49:53;0.50;99.90
13892;DHT22;7016;48.172;8.058;2023-02-28T05:54:46;0.30;99.90
13892;DHT22;7016;48.172;8.058;2023-02-28T05:57:12;0.20;99.90
13892;DHT22;7016;48.172;8.058;2023-02-28T05:59:38;0.20;99.90
13892;DHT22;7016;48.172;8.058;2023-02-28T06:02:06;0.10;99.90
13892;DHT22;7016;48.172;8.058;2023-02-28T06:04:42;0.10;99.90
13892;DHT22;7016;48.172;8.058;2023-02-28T06:12:02;0.30;99.90
13892;DHT22;7016;48.172;8.058;2023-02-28T06:16:57;0.30;99.90
13892;DHT22;7016;48.172;8.058;2023-02-28T06:19:23;0.20;99.90
13892;DHT22;7016;48.172;8.058;2023-02-28T06:21:52;0.40;99.90
13892;DHT22;7016;48.172;8.058;2023-02-28T06:24:19;0.40;99.90
13892;DHT22;7016;48.172;8.058;2023-02-28T06:26:45;0.40;99.90
13892;DHT22;7016;48.172;8.058;2023-02-28T06:29:11;0.10;99.90
13892;DHT22;7016;48.172;8.058;2023-02-28T06:31:37;0.10;99.90
13892;DHT22;7016;48.172;8.058;2023-02-28T06:34:04;0.10;99.90
13892;DHT22;7016;48.172;8.058;2023-02-28T06:36:30;0.30;99.90
13892;DHT22;7016;48.172;8.058;2023-02-28T06:38:56;0.30;99.90
13892;DHT22;7016;48.172;8.058;2023-02-28T06:41:26;0.00;99.90
13892;DHT22;7016;48.172;8.058;2023-02-28T06:43:52;-0.10;99.90
13892;DHT22;7016;48.172;8.058;2023-02-28T06:46:18;3.20;99.90
13892;DHT22;7016;48.172;8.058;2023-02-28T06:48:44;-0.10;99.90
13892;DHT22;7016;48.172;8.058;2023-02-28T06:51:19;0.00;99.90
13892;DHT22;7016;48.172;8.058;2023-02-28T06:53:48;0.00;99.90
13892;DHT22;7016;48.172;8.058;2023-02-28T06:56:15;0.00;99.90
13892;DHT22;7016;48.172;8.058;2023-02-28T06:58:40;-0.20;99.90
13892;DHT22;7016;48.172;8.058;2023-02-28T07:01:08;0.10;99.90
13892;DHT22;7016;48.172;8.058;2023-02-28T07:03:35;0.00;99.90
13892;DHT22;7016;48.172;8.058;2023-02-28T07:08:28;0.00;99.90
13892;DHT22;7016;48.172;8.058;2023-02-28T07:10:57;0.00;99.90
13892;DHT22;7016;48.172;8.058;2023-02-28T07:15:54;0.10;99.90
13892;DHT22;7016;48.172;8.058;2023-02-28T07:18:19;0.30;99.90
13892;DHT22;7016;48.172;8.058;2023-02-28T07:23:11;0.10;99.90
13892;DHT22;7016;48.172;8.058;2023-02-28T07:25:37;-0.10;99.90
13892;DHT22;7016;48.172;8.058;2023-02-28T07:28:02;0.00;99.90
13892;DHT22;7016;48.172;8.058;2023-02-28T07:30:28;-0.10;99.90
13892;DHT22;7016;48.172;8.058;2023-02-28T07:32:54;0.20;99.90
13892;DHT22;7016;48.172;8.058;2023-02-28T07:35:21;-0.10;99.90
13892;DHT22;7016;48.172;8.058;2023-02-28T07:37:47;0.20;99.90
13892;DHT22;7016;48.172;8.058;2023-02-28T07:40:13;0.40;99.90
13892;DHT22;7016;48.172;8.058;2023-02-28T07:42:40;0.40;99.90
13892;DHT22;7016;48.172;8.058;2023-02-28T07:45:10;0.20;99.90
13892;DHT22;7016;48.172;8.058;2023-02-28T07:50:23;0.40;99.90
13892;DHT22;7016;48.172;8.058;2023-02-28T07:52:49;0.40;99.90
13892;DHT22;7016;48.172;8.058;2023-02-28T07:55:15;2.90;99.90
13892;DHT22;7016;48.172;8.058;2023-02-28T07:57:42;0.70;99.90
13892;DHT22;7016;48.172;8.058;2023-02-28T08:00:10;0.80;99.90
13892;DHT22;7016;48.172;8.058;2023-02-28T08:02:38;0.80;99.90
13892;DHT22;7016;48.172;8.058;2023-02-28T08:05:05;0.70;99.90
13892;DHT22;7016;48.172;8.058;2023-02-28T08:07:31;0.80;99.90
13892;DHT22;7016;48.172;8.058;2023-02-28T08:09:57;0.70;99.90
13892;DHT22;7016;48.172;8.058;2023-02-28T08:12:23;0.80;99.90
13892;DHT22;7016;48.172;8.058;2023-02-28T08:17:14;1.00;99.90
13892;DHT22;7016;48.172;8.058;2023-02-28T08:19:40;1.10;99.90
13892;DHT22;7016;48.172;8.058;2023-02-28T08:22:06;1.00;99.90
13892;DHT22;7016;48.172;8.058;2023-02-28T08:24:31;1.00;99.90
13892;DHT22;7016;48.172;8.058;2023-02-28T08:26:57;0.70;99.90
13892;DHT22;7016;48.172;8.058;2023-02-28T08:29:23;0.60;99.90
13892;DHT22;7016;48.172;8.058;2023-02-28T08:31:48;0.70;99.90
13892;DHT22;7016;48.172;8.058;2023-02-28T08:34:15;0.80;99.90
13892;DHT22;7016;48.172;8.058;2023-02-28T08:36:41;0.90;99.90
13892;DHT22;7016;48.172;8.058;2023-02-28T08:39:09;0.80;99.90
13892;DHT22;7016;48.172;8.058;2023-02-28T08:41:35;0.80;99.90
13892;DHT22;7016;48.172;8.058;2023-02-28T08:44:01;0.70;99.90
13892;DHT22;7016;48.172;8.058;2023-02-28T08:46:27;0.80;99.90
13892;DHT22;7016;48.172;8.058;2023-02-28T08:48:56;0.80;99.90
13892;DHT22;7016;48.172;8.058;2023-02-28T08:51:26;0.90;99.90
13892;DHT22;7016;48.172;8.058;2023-02-28T08:53:57;1.00;99.90
13892;DHT22;7016;48.172;8.058;2023-02-28T08:56:24;1.00;99.90
13892;DHT22;7016;48.172;8.058;2023-02-28T08:58:50;1.20;99.90
13892;DHT22;7016;48.172;8.058;2023-02-28T09:01:17;1.30;99.90
13892;DHT22;7016;48.172;8.058;2023-02-28T09:03:45;1.20;99.90
13892;DHT22;7016;48.172;8.058;2023-02-28T09:06:11;1.10;99.90
13892;DHT22;7016;48.172;8.058;2023-02-28T09:08:38;1.20;99.90
13892;DHT22;7016;48.172;8.058;2023-02-28T09:11:04;1.30;99.90
13892;DHT22;7016;48.172;8.058;2023-02-28T09:13:30;1.30;99.90
13892;DHT22;7016;48.172;8.058;2023-02-28T09:15:59;1.30;99.90
13892;DHT22;7016;48.172;8.058;2023-02-28T09:18:25;1.20;99.90
13892;DHT22;7016;48.172;8.058;2023-02-28T09:20:51;1.20;99.90
13892;DHT22;7016;48.172;8.058;2023-02-28T09:23:17;1.20;99.90
13892;DHT22;7016;48.172;8.058;2023-02-28T09:25:47;1.20;99.90
13892;DHT22;7016;48.172;8.058;2023-02-28T09:28:13;1.20;99.90
13892;DHT22;7016;48.172;8.058;2023-02-28T09:30:41;1.20;99.90
13892;DHT22;7016;48.172;8.058;2023-02-28T09:33:07;1.20;99.90
13892;DHT22;7016;48.172;8.058;2023-02-28T09:35:33;1.20;99.90
13892;DHT22;7016;48.172;8.058;2023-02-28T09:37:58;1.30;99.90
13892;DHT22;7016;48.172;8.058;2023-02-28T09:40:25;1.50;99.90
13892;DHT22;7016;48.172;8.058;2023-02-28T09:42:53;1.40;99.90
13892;DHT22;7016;48.172;8.058;2023-02-28T09:45:36;1.30;99.90
13892;DHT22;7016;48.172;8.058;2023-02-28T09:48:23;1.40;99.90
13892;DHT22;7016;48.172;8.058;2023-02-28T09:51:03;1.10;99.90
13892;DHT22;7016;48.172;8.058;2023-02-28T09:53:33;1.10;99.90
13892;DHT22;7016;48.172;8.058;2023-02-28T09:56:24;1.10;99.90
13892;DHT22;7016;48.172;8.058;2023-02-28T09:58:59;1.20;99.90
13892;DHT22;7016;48.172;8.058;2023-02-28T10:01:34;1.50;99.90
13892;DHT22;7016;48.172;8.058;2023-02-28T10:06:51;1.40;99.90
13892;DHT22;7016;48.172;8.058;2023-02-28T10:09:19;1.50;99.90
13892;DHT22;7016;48.172;8.058;2023-02-28T10:11:48;1.70;99.90
13892;DHT22;7016;48.172;8.058;2023-02-28T10:14:35;1.70;99.90
13892;DHT22;7016;48.172;8.058;2023-02-28T10:17:17;1.70;99.90
13892;DHT22;7016;48.172;8.058;2023-02-28T10:20:04;1.80;99.90
13892;DHT22;7016;48.172;8.058;2023-02-28T10:22:53;1.70;99.90
13892;DHT22;7016;48.172;8.058;2023-02-28T10:25:25;1.80;99.90
13892;DHT22;7016;48.172;8.058;2023-02-28T10:27:58;1.70;99.90
13892;DHT22;7016;48.172;8.058;2023-02-28T10:30:26;1.70;99.90
13892;DHT22;7016;48.172;8.058;2023-02-28T10:32:52;1.60;99.90
13892;DHT22;7016;48.172;8.058;2023-02-28T10:35:22;1.80;99.90
13892;DHT22;7016;48.172;8.058;2023-02-28T10:37:53;1.90;99.90
13892;DHT22;7016;48.172;8.058;2023-02-28T10:43:00;1.90;99.90
13892;DHT22;7016;48.172;8.058;2023-02-28T10:45:29;1.70;99.90
13892;DHT22;7016;48.172;8.058;2023-02-28T10:48:05;1.80;99.90
13892;DHT22;7016;48.172;8.058;2023-02-28T10:50:44;1.80;99.90
13892;DHT22;7016;48.172;8.058;2023-02-28T10:58:56;2.00;99.90
13892;DHT22;7016;48.172;8.058;2023-02-28T11:04:03;2.10;99.90
13892;DHT22;7016;48.172;8.058;2023-02-28T11:06:33;2.00;99.90
13892;DHT22;7016;48.172;8.058;2023-02-28T11:09:26;1.80;99.90
13892;DHT22;7016;48.172;8.058;2023-02-28T11:11:52;1.90;99.90
13892;DHT22;7016;48.172;8.058;2023-02-28T11:14:25;1.90;99.90
13892;DHT22;7016;48.172;8.058;2023-02-28T11:16:52;1.90;99.90
13892;DHT22;7016;48.172;8.058;2023-02-28T11:19:26;2.00;99.90
13892;DHT22;7016;48.172;8.058;2023-02-28T11:21:56;2.00;99.90
13892;DHT22;7016;48.172;8.058;2023-02-28T11:24:29;2.00;99.90
13892;DHT22;7016;48.172;8.058;2023-02-28T11:26:56;2.20;99.90
13892;DHT22;7016;48.172;8.058;2023-02-28T11:29:27;2.10;99.90
13892;DHT22;7016;48.172;8.058;2023-02-28T11:32:13;1.90;99.90
13892;DHT22;7016;48.172;8.058;2023-02-28T11:34:41;1.90;99.90
13892;DHT22;7016;48.172;8.058;2023-02-28T11:37:18;1.90;99.90
13892;DHT22;7016;48.172;8.058;2023-02-28T11:39:45;2.00;99.90
13892;DHT22;7016;48.172;8.058;2023-02-28T11:45:51;2.20;99.90
13892;DHT22;7016;48.172;8.058;2023-02-28T11:48:32;2.20;99.90
13892;DHT22;7016;48.172;8.058;2023-02-28T11:59:32;2.40;99.90
13892;DHT22;7016;48.172;8.058;2023-02-28T12:08:04;2.30;99.90
13892;DHT22;7016;48.172;8.058;2023-02-28T12:13:25;2.50;99.90
13892;DHT22;7016;48.172;8.058;2023-02-28T12:19:13;2.60;99.90
13892;DHT22;7016;48.172;8.058;2023-02-28T12:24:31;2.60;99.90
13892;DHT22;7016;48.172;8.058;2023-02-28T12:32:04;2.70;99.90
13892;DHT22;7016;48.172;8.058;2023-02-28T12:34:38;2.80;99.90
13892;DHT22;7016;48.172;8.058;2023-02-28T12:37:07;2.70;99.90
13892;DHT22;7016;48.172;8.058;2023-02-28T12:39:40;2.80;99.90
13892;DHT22;7016;48.172;8.058;2023-02-28T12:42:26;2.90;99.90
13892;DHT22;7016;48.172;8.058;2023-02-28T12:44:58;2.90;99.90
13892;DHT22;7016;48.172;8.058;2023-02-28T12:47:24;2.90;99.90
13892;DHT22;7016;48.172;8.058;2023-02-28T12:50:07;2.60;99.90
13892;DHT22;7016;48.172;8.058;2023-02-28T12:58:33;2.70;99.90
13892;DHT22;7016;48.172;8.058;2023-02-28T13:09:22;2.90;99.90
13892;DHT22;7016;48.172;8.058;2023-02-28T13:11:49;2.80;99.90
13892;DHT22;7016;48.172;8.058;2023-02-28T13:19:17;3.00;99.90
13892;DHT22;7016;48.172;8.058;2023-02-28T13:21:44;3.10;99.90
13892;DHT22;7016;48.172;8.058;2023-02-28T13:24:11;3.20;99.90
13892;DHT22;7016;48.172;8.058;2023-02-28T13:35:12;3.00;99.90
13892;DHT22;7016;48.172;8.058;2023-02-28T13:37:35;3.10;99.90
13892;DHT22;7016;48.172;8.058;2023-02-28T13:42:47;3.10;99.90
13892;DHT22;7016;48.172;8.058;2023-02-28T13:45:26;3.20;99.90
13892;DHT22;7016;48.172;8.058;2023-02-28T13:58:59;3.50;99.90
13892;DHT22;7016;48.172;8.058;2023-02-28T14:06:38;3.40;99.90
13892;DHT22;7016;48.172;8.058;2023-02-28T14:11:39;3.80;99.90
13892;DHT22;7016;48.172;8.058;2023-02-28T14:14:07;3.80;99.90
13892;DHT22;7016;48.172;8.058;2023-02-28T14:16:47;3.60;99.90
13892;DHT22;7016;48.172;8.058;2023-02-28T14:19:31;3.60;99.90
13892;DHT22;7016;48.172;8.058;2023-02-28T14:33:30;3.60;99.90
13892;DHT22;7016;48.172;8.058;2023-02-28T14:41:46;3.70;99.90
13892;DHT22;7016;48.172;8.058;2023-02-28T14:44:23;3.80;99.90
13892;DHT22;7016;48.172;8.058;2023-02-28T14:46:56;3.90;99.90
13892;DHT22;7016;48.172;8.058;2023-02-28T14:49:35;3.90;99.90
13892;DHT22;7016;48.172;8.058;2023-02-28T14:52:06;3.80;99.90
13892;DHT22;7016;48.172;8.058;2023-02-28T14:54:36;3.80;99.90
13892;DHT22;7016;48.172;8.058;2023-02-28T14:57:02;3.90;99.90
13892;DHT22;7016;48.172;8.058;2023-02-28T14:59:33;3.80;99.90
13892;DHT22;7016;48.172;8.058;2023-02-28T15:02:25;4.60;99.90
13892;DHT22;7016;48.172;8.058;2023-02-28T15:07:39;3.80;99.90
13892;DHT22;7016;48.172;8.058;2023-02-28T15:10:24;3.80;99.90
13892;DHT22;7016;48.172;8.058;2023-02-28T15:13:10;3.80;99.90
13892;DHT22;7016;48.172;8.058;2023-02-28T15:15:53;3.80;99.90
13892;DHT22;7016;48.172;8.058;2023-02-28T15:21:24;3.70;99.90
13892;DHT22;7016;48.172;8.058;2023-02-28T15:24:05;3.70;99.90
13892;DHT22;7016;48.172;8.058;2023-02-28T15:26:41;3.70;99.90
13892;DHT22;7016;48.172;8.058;2023-02-28T15:29:12;3.80;99.90
13892;DHT22;7016;48.172;8.058;2023-02-28T15:32:16;3.80;99.90
13892;DHT22;7016;48.172;8.058;2023-02-28T15:34:41;3.70;99.90
13892;DHT22;7016;48.172;8.058;2023-02-28T15:39:54;3.50;99.90
13892;DHT22;7016;48.172;8.058;2023-02-28T15:42:23;3.60;99.90
13892;DHT22;7016;48.172;8.058;2023-02-28T15:44:49;3.70;99.90
13892;DHT22;7016;48.172;8.058;2023-02-28T15:47:19;3.80;99.90
13892;DHT22;7016;48.172;8.058;2023-02-28T15:49:48;3.80;99.90
13892;DHT22;7016;48.172;8.058;2023-02-28T15:52:42;3.80;99.90
13892;DHT22;7016;48.172;8.058;2023-02-28T15:57:42;3.70;99.90
13892;DHT22;7016;48.172;8.058;2023-02-28T16:00:18;3.80;99.90
13892;DHT22;7016;48.172;8.058;2023-02-28T16:02:44;3.80;99.90
13892;DHT22;7016;48.172;8.058;2023-02-28T16:07:40;3.70;99.90
13892;DHT22;7016;48.172;8.058;2023-02-28T16:10:08;3.80;99.90
13892;DHT22;7016;48.172;8.058;2023-02-28T16:12:35;3.80;99.90
13892;DHT22;7016;48.172;8.058;2023-02-28T16:15:07;3.70;99.90
13892;DHT22;7016;48.172;8.058;2023-02-28T16:17:35;3.80;99.90
13892;DHT22;7016;48.172;8.058;2023-02-28T16:20:13;3.80;99.90
13892;DHT22;7016;48.172;8.058;2023-02-28T16:22:39;3.90;99.90
13892;DHT22;7016;48.172;8.058;2023-02-28T16:25:05;3.70;99.90
13892;DHT22;7016;48.172;8.058;2023-02-28T16:27:36;3.70;99.90
13892;DHT22;7016;48.172;8.058;2023-02-28T16:30:04;3.70;99.90
13892;DHT22;7016;48.172;8.058;2023-02-28T16:32:31;3.90;99.90
13892;DHT22;7016;48.172;8.058;2023-02-28T16:35:00;3.80;99.90
13892;DHT22;7016;48.172;8.058;2023-02-28T16:37:27;3.60;99.90
13892;DHT22;7016;48.172;8.058;2023-02-28T16:39:53;3.70;99.90
13892;DHT22;7016;48.172;8.058;2023-02-28T16:42:25;3.70;99.90
13892;DHT22;7016;48.172;8.058;2023-02-28T16:44:53;3.70;99.90
13892;DHT22;7016;48.172;8.058;2023-02-28T16:47:19;3.70;99.90
13892;DHT22;7016;48.172;8.058;2023-02-28T16:49:45;3.70;99.90
13892;DHT22;7016;48.172;8.058;2023-02-28T16:52:13;3.90;99.90
13892;DHT22;7016;48.172;8.058;2023-02-28T16:54:40;3.80;99.90
13892;DHT22;7016;48.172;8.058;2023-02-28T16:57:13;3.80;99.90
13892;DHT22;7016;48.172;8.058;2023-02-28T16:59:42;3.70;99.90
13892;DHT22;7016;48.172;8.058;2023-02-28T17:02:12;3.70;99.90
13892;DHT22;7016;48.172;8.058;2023-02-28T17:04:39;3.60;99.90
13892;DHT22;7016;48.172;8.058;2023-02-28T17:07:08;3.70;99.90
13892;DHT22;7016;48.172;8.058;2023-02-28T17:09:34;3.70;99.90
13892;DHT22;7016;48.172;8.058;2023-02-28T17:12:00;3.70;99.90
13892;DHT22;7016;48.172;8.058;2023-02-28T17:14:26;3.60;99.90
13892;DHT22;7016;48.172;8.058;2023-02-28T17:16:52;3.50;99.90
13892;DHT22;7016;48.172;8.058;2023-02-28T17:19:18;3.40;99.90
13892;DHT22;7016;48.172;8.058;2023-02-28T17:21:44;3.30;99.90
13892;DHT22;7016;48.172;8.058;2023-02-28T17:24:10;3.30;99.90
13892;DHT22;7016;48.172;8.058;2023-02-28T17:26:40;3.20;99.90
13892;DHT22;7016;48.172;8.058;2023-02-28T17:29:27;3.10;99.90
13892;DHT22;7016;48.172;8.058;2023-02-28T17:31:52;3.00;99.90
13892;DHT22;7016;48.172;8.058;2023-02-28T17:34:18;3.10;99.90
13892;DHT22;7016;48.172;8.058;2023-02-28T17:36:46;3.10;99.90
13892;DHT22;7016;48.172;8.058;2023-02-28T17:39:13;3.10;99.90
13892;DHT22;7016;48.172;8.058;2023-02-28T17:41:40;3.00;99.90
13892;DHT22;7016;48.172;8.058;2023-02-28T17:44:07;3.00;99.90
13892;DHT22;7016;48.172;8.058;2023-02-28T17:46:34;3.00;99.90
13892;DHT22;7016;48.172;8.058;2023-02-28T17:49:00;2.90;99.90
13892;DHT22;7016;48.172;8.058;2023-02-28T17:51:26;2.90;99.90
13892;DHT22;7016;48.172;8.058;2023-02-28T17:53:52;3.00;99.90
13892;DHT22;7016;48.172;8.058;2023-02-28T17:56:25;3.00;99.90
13892;DHT22;7016;48.172;8.058;2023-02-28T17:58:52;3.00;99.90
13892;DHT22;7016;48.172;8.058;2023-02-28T18:01:19;3.00;99.90
13892;DHT22;7016;48.172;8.058;2023-02-28T18:03:46;2.90;99.90
13892;DHT22;7016;48.172;8.058;2023-02-28T18:06:34;2.90;99.90
13892;DHT22;7016;48.172;8.058;2023-02-28T18:09:00;1.60;99.90
13892;DHT22;7016;48.172;8.058;2023-02-28T18:11:29;2.80;99.90
13892;DHT22;7016;48.172;8.058;2023-02-28T18:14:07;2.80;99.90
13892;DHT22;7016;48.172;8.058;2023-02-28T18:16:33;2.80;99.90
13892;DHT22;7016;48.172;8.058;2023-02-28T18:18:59;2.70;99.90
13892;DHT22;7016;48.172;8.058;2023-02-28T18:21:27;2.70;99.90
13892;DHT22;7016;48.172;8.058;2023-02-28T18:23:53;2.60;99.90
13892;DHT22;7016;48.172;8.058;2023-02-28T18:26:19;2.60;99.90
13892;DHT22;7016;48.172;8.058;2023-02-28T18:28:45;2.50;99.90
13892;DHT22;7016;48.172;8.058;2023-02-28T18:31:16;2.40;99.90
13892;DHT22;7016;48.172;8.058;2023-02-28T18:36:11;2.40;99.90
13892;DHT22;7016;48.172;8.058;2023-02-28T18:38:37;2.40;99.90
13892;DHT22;7016;48.172;8.058;2023-02-28T18:41:04;2.30;99.90
13892;DHT22;7016;48.172;8.058;2023-02-28T18:43:33;2.30;99.90
13892;DHT22;7016;48.172;8.058;2023-02-28T18:46:10;3.00;99.90
13892;DHT22;7016;48.172;8.058;2023-02-28T18:48:36;2.30;99.90
13892;DHT22;7016;48.172;8.058;2023-02-28T18:51:10;2.20;99.90
13892;DHT22;7016;48.172;8.058;2023-02-28T18:53:37;2.20;99.90
13892;DHT22;7016;48.172;8.058;2023-02-28T18:56:04;2.20;99.90
13892;DHT22;7016;48.172;8.058;2023-02-28T18:58:30;2.20;99.90
13892;DHT22;7016;48.172;8.058;2023-02-28T19:00:59;2.10;99.90
13892;DHT22;7016;48.172;8.058;2023-02-28T19:03:25;2.10;99.90
13892;DHT22;7016;48.172;8.058;2023-02-28T19:05:56;2.10;99.90
13892;DHT22;7016;48.172;8.058;2023-02-28T19:08:23;2.10;99.90
13892;DHT22;7016;48.172;8.058;2023-02-28T19:10:49;2.10;99.90
13892;DHT22;7016;48.172;8.058;2023-02-28T19:13:16;2.10;99.90